createdAt,value
2018-03-30T00:02:22.170Z,59.70
2018-03-30T00:04:51.045Z,59.80
2018-03-30T00:07:19.924Z,62.60
2018-03-30T00:09:56.064Z,61.90
2018-03-30T00:12:24.166Z,61.30
2018-03-30T00:14:53.038Z,61.50
2018-03-30T00:17:21.139Z,61.40
2018-03-30T00:19:50.056Z,61.50
2018-03-30T00:22:20.050Z,61.60
2018-03-30T00:24:48.931Z,61.90
2018-03-30T00:27:17.816Z,62.20
2018-03-30T00:29:45.936Z,62.10
2018-03-30T00:32:14.076Z,61.90
2018-03-30T00:34:42.938Z,62.40
2018-03-30T00:37:11.059Z,62.30
2018-03-30T00:39:39.177Z,62.10
2018-03-30T00:42:07.272Z,62.60
2018-03-30T00:44:35.466Z,62.50
2018-03-30T00:47:04.322Z,63.00
2018-03-30T00:49:32.438Z,63.00
2018-03-30T00:52:00.555Z,63.00
2018-03-30T00:54:28.659Z,63.00
2018-03-30T00:56:57.528Z,63.00
2018-03-30T00:59:25.751Z,63.00
2018-03-30T01:01:54.591Z,63.00
2018-03-30T01:04:22.692Z,63.00
2018-03-30T01:06:51.584Z,63.60
2018-03-30T01:09:20.464Z,63.30
2018-03-30T01:11:49.336Z,64.40
2018-03-30T01:14:17.458Z,63.70
2018-03-30T01:16:45.542Z,63.70
2018-03-30T01:19:13.655Z,63.90
2018-03-30T01:21:42.544Z,64.30
2018-03-30T01:24:10.748Z,64.30
2018-03-30T01:26:39.638Z,64.10
2018-03-30T01:29:08.539Z,64.10
2018-03-30T01:31:36.652Z,64.20
2018-03-30T01:34:04.771Z,64.10
2018-03-30T01:36:33.649Z,64.40
2018-03-30T01:39:02.519Z,65.10
2018-03-30T01:41:30.632Z,65.10
2018-03-30T01:43:58.731Z,64.70
2018-03-30T01:46:26.855Z,65.10
2018-03-30T01:48:55.753Z,64.80
2018-03-30T01:51:24.628Z,64.80
2018-03-30T01:53:53.539Z,65.20
2018-03-30T01:56:22.421Z,66.00
2018-03-30T01:58:51.295Z,65.00
2018-03-30T02:01:20.179Z,64.50
2018-03-30T02:03:49.051Z,64.20
2018-03-30T02:06:17.144Z,64.20
2018-03-30T02:08:45.266Z,64.70
2018-03-30T02:11:13.391Z,64.60
2018-03-30T02:13:43.001Z,64.30
2018-03-30T02:16:11.907Z,65.10
2018-03-30T02:18:40.791Z,64.40
2018-03-30T02:21:09.671Z,64.20
2018-03-30T02:23:38.540Z,65.10
2018-03-30T02:26:06.648Z,64.50
2018-03-30T02:28:35.549Z,64.60
2018-03-30T02:31:04.420Z,64.60
2018-03-30T02:33:33.301Z,64.30
2018-03-30T02:36:01.427Z,64.30
2018-03-30T02:38:29.508Z,64.40
2018-03-30T02:40:57.743Z,64.50
2018-03-30T02:43:26.612Z,64.30
2018-03-30T02:45:55.484Z,64.40
2018-03-30T02:48:23.702Z,64.40
2018-03-30T02:50:52.584Z,64.30
2018-03-30T02:53:21.472Z,64.00
2018-03-30T02:55:51.194Z,63.90
2018-03-30T02:58:20.085Z,64.70
2018-03-30T03:00:48.955Z,64.00
2018-03-30T03:03:17.866Z,64.00
2018-03-30T03:05:45.960Z,64.00
2018-03-30T03:08:14.099Z,63.90
2018-03-30T03:10:42.980Z,63.80
2018-03-30T03:13:11.851Z,64.40
2018-03-30T03:15:39.970Z,63.80
2018-03-30T03:18:08.067Z,64.00
2018-03-30T03:20:36.179Z,63.90
2018-03-30T03:23:05.038Z,63.70
2018-03-30T03:25:33.141Z,63.80
2018-03-30T03:28:02.051Z,63.60
2018-03-30T03:30:30.938Z,63.80
2018-03-30T03:32:59.804Z,63.70
2018-03-30T03:35:27.896Z,63.60
2018-03-30T03:37:56.778Z,63.80
2018-03-30T03:40:25.814Z,63.80
2018-03-30T03:42:53.908Z,64.20
2018-03-30T03:45:22.010Z,64.30
2018-03-30T03:47:51.632Z,63.60
2018-03-30T03:50:20.498Z,63.60
2018-03-30T03:52:50.123Z,63.70
2018-03-30T03:55:18.982Z,64.40
2018-03-30T03:57:47.084Z,63.70
2018-03-30T04:00:15.955Z,63.30
2018-03-30T04:02:44.095Z,63.30
2018-03-30T04:05:12.223Z,63.20
2018-03-30T04:07:41.094Z,63.10
2018-03-30T04:10:09.208Z,63.10
2018-03-30T04:12:37.311Z,63.20
2018-03-30T04:15:05.408Z,63.30
2018-03-30T04:17:33.508Z,63.20
2018-03-30T04:20:01.632Z,63.30
2018-03-30T04:22:29.744Z,63.30
2018-03-30T04:24:58.654Z,63.20
2018-03-30T04:27:31.205Z,63.20
2018-03-30T04:30:00.214Z,63.20
2018-03-30T04:32:29.091Z,63.30
2018-03-30T04:34:57.960Z,63.30
2018-03-30T04:37:26.087Z,63.30
2018-03-30T04:39:54.187Z,63.30
2018-03-30T04:42:22.407Z,63.20
2018-03-30T04:44:51.276Z,63.30
2018-03-30T04:47:19.471Z,63.30
2018-03-30T04:49:48.462Z,63.20
2018-03-30T04:52:17.331Z,63.20
2018-03-30T04:54:45.443Z,63.10
2018-03-30T04:57:13.576Z,63.10
2018-03-30T04:59:41.674Z,63.00
2018-03-30T05:02:10.575Z,63.30
2018-03-30T05:04:38.675Z,63.20
2018-03-30T05:07:06.838Z,63.30
2018-03-30T05:09:34.953Z,63.10
2018-03-30T05:12:03.053Z,63.10
2018-03-30T05:14:32.353Z,63.50
2018-03-30T05:17:01.270Z,63.70
2018-03-30T05:19:29.372Z,63.70
2018-03-30T05:21:57.550Z,63.80
2018-03-30T05:24:25.651Z,64.00
2018-03-30T05:26:54.515Z,64.00
2018-03-30T05:29:22.641Z,64.00
2018-03-30T05:31:50.798Z,64.00
2018-03-30T05:34:18.916Z,64.00
2018-03-30T05:36:47.017Z,63.80
2018-03-30T05:39:15.139Z,63.90
2018-03-30T05:41:43.252Z,63.90
2018-03-30T05:44:11.346Z,63.90
2018-03-30T05:46:40.326Z,64.20
2018-03-30T05:49:09.191Z,63.90
2018-03-30T05:51:37.296Z,63.90
2018-03-30T05:54:06.209Z,64.30
2018-03-30T05:56:34.334Z,64.20
2018-03-30T05:59:02.427Z,64.40
2018-03-30T06:01:30.602Z,64.40
2018-03-30T06:03:59.504Z,64.70
2018-03-30T06:06:28.367Z,64.60
2018-03-30T06:08:56.510Z,64.60
2018-03-30T06:11:24.623Z,64.70
2018-03-30T06:13:53.498Z,65.00
2018-03-30T06:16:21.624Z,64.90
2018-03-30T06:18:49.707Z,65.20
2018-03-30T06:21:17.810Z,65.50
2018-03-30T06:23:46.016Z,65.50
2018-03-30T06:26:14.882Z,66.20
2018-03-30T06:28:43.070Z,66.20
2018-03-30T06:31:11.954Z,65.80
2018-03-30T06:33:40.828Z,66.00
2018-03-30T06:36:09.022Z,65.90
2018-03-30T06:38:37.915Z,66.30
2018-03-30T06:41:06.808Z,65.70
2018-03-30T06:43:35.718Z,65.70
2018-03-30T06:46:03.828Z,65.60
2018-03-30T06:48:31.933Z,65.70
2018-03-30T06:51:00.117Z,65.90
2018-03-30T06:53:29.019Z,66.50
2018-03-30T06:55:57.913Z,66.50
2018-03-30T06:58:26.070Z,66.40
2018-03-30T07:00:54.962Z,66.70
2018-03-30T07:03:23.892Z,66.50
2018-03-30T07:05:51.996Z,66.50
2018-03-30T07:08:20.196Z,66.60
2018-03-30T07:10:49.080Z,67.00
2018-03-30T07:13:17.966Z,67.20
2018-03-30T07:15:46.821Z,67.00
2018-03-30T07:18:14.920Z,67.00
2018-03-30T07:20:43.808Z,67.20
2018-03-30T07:23:13.472Z,67.20
2018-03-30T07:25:41.595Z,67.20
2018-03-30T07:28:09.684Z,67.10
2018-03-30T07:30:38.575Z,67.20
2018-03-30T07:33:07.503Z,67.10
2018-03-30T07:35:35.608Z,67.10
2018-03-30T07:38:03.706Z,67.30
2018-03-30T07:40:32.590Z,67.40
2018-03-30T07:43:01.583Z,67.20
2018-03-30T07:45:30.471Z,67.10
2018-03-30T07:47:59.345Z,67.40
2018-03-30T07:50:27.448Z,67.40
2018-03-30T07:52:56.423Z,65.80
2018-03-30T07:55:25.400Z,66.20
2018-03-30T07:57:55.031Z,66.20
2018-03-30T08:00:23.900Z,65.80
2018-03-30T08:02:52.027Z,65.80
2018-03-30T08:05:20.155Z,66.00
2018-03-30T08:07:49.032Z,64.60
2018-03-30T08:10:17.912Z,65.30
2018-03-30T08:12:46.039Z,65.30
2018-03-30T08:15:14.161Z,66.00
2018-03-30T08:17:42.291Z,65.70
2018-03-30T08:20:10.395Z,65.70
2018-03-30T08:22:38.631Z,66.10
2018-03-30T08:25:06.751Z,66.00
2018-03-30T08:27:34.891Z,66.00
2018-03-30T08:30:03.040Z,65.50
2018-03-30T08:32:31.207Z,65.60
2018-03-30T08:34:59.323Z,66.00
2018-03-30T08:37:27.462Z,65.90
2018-03-30T08:39:55.595Z,65.80
2018-03-30T08:42:23.703Z,65.90
2018-03-30T08:44:51.827Z,65.80
2018-03-30T08:47:19.939Z,65.60
2018-03-30T08:49:48.055Z,64.60
2018-03-30T08:52:16.226Z,64.20
2018-03-30T08:54:44.467Z,64.00
2018-03-30T08:57:12.579Z,63.80
2018-03-30T08:59:40.719Z,63.60
2018-03-30T09:02:08.893Z,64.10
2018-03-30T09:04:37.059Z,63.90
2018-03-30T09:07:05.231Z,63.60
2018-03-30T09:09:33.402Z,63.40
2018-03-30T09:12:01.603Z,63.70
2018-03-30T09:14:29.747Z,63.70
2018-03-30T09:16:57.877Z,63.20
2018-03-30T09:19:26.002Z,63.70
2018-03-30T09:21:54.130Z,63.00
2018-03-30T09:24:23.762Z,61.30
2018-03-30T09:26:52.648Z,60.80
2018-03-30T09:29:22.251Z,60.30
2018-03-30T09:31:51.183Z,60.20
2018-03-30T09:34:19.329Z,60.20
2018-03-30T09:36:48.194Z,61.60
2018-03-30T09:39:16.394Z,61.60
2018-03-30T09:41:45.296Z,61.90
2018-03-30T09:44:13.394Z,62.00
2018-03-30T09:46:41.647Z,60.80
2018-03-30T09:49:09.811Z,61.30
2018-03-30T09:51:37.922Z,61.70
2018-03-30T09:54:06.034Z,61.50
2018-03-30T09:56:34.936Z,61.20
2018-03-30T09:59:03.827Z,59.70
2018-03-30T10:01:32.710Z,60.00
2018-03-30T10:04:01.753Z,58.80
2018-03-30T10:06:29.865Z,58.80
2018-03-30T10:08:58.764Z,60.60
2018-03-30T10:11:27.665Z,59.30
2018-03-30T10:13:56.530Z,59.60
2018-03-30T10:16:26.174Z,59.60
2018-03-30T10:18:55.046Z,59.40
2018-03-30T10:21:23.952Z,59.10
2018-03-30T10:23:52.127Z,59.10
2018-03-30T10:26:20.264Z,58.70
2018-03-30T10:28:49.905Z,59.40
2018-03-30T10:31:18.061Z,59.50
2018-03-30T10:33:46.176Z,59.30
2018-03-30T10:36:14.332Z,59.00
2018-03-30T10:38:42.440Z,58.40
2018-03-30T10:41:10.544Z,58.90
2018-03-30T10:43:39.445Z,57.70
2018-03-30T10:46:08.334Z,57.50
2018-03-30T10:48:37.219Z,57.10
2018-03-30T10:51:05.328Z,57.10
2018-03-30T10:53:33.443Z,57.70
2018-03-30T10:56:01.625Z,58.30
2018-03-30T10:58:31.236Z,57.00
2018-03-30T11:01:00.867Z,57.20
2018-03-30T11:03:29.740Z,57.90
2018-03-30T11:05:57.871Z,57.90
2018-03-30T11:08:25.979Z,57.70
2018-03-30T11:10:54.092Z,58.50
2018-03-30T11:13:22.220Z,58.20
2018-03-30T11:15:50.380Z,56.90
2018-03-30T11:18:18.587Z,57.40
2018-03-30T11:20:47.463Z,56.40
2018-03-30T11:23:15.665Z,56.40
2018-03-30T11:25:44.551Z,55.40
2018-03-30T11:28:12.709Z,55.40
2018-03-30T11:30:40.830Z,55.50
2018-03-30T11:33:08.963Z,54.00
2018-03-30T11:35:37.858Z,54.10
2018-03-30T11:38:05.997Z,54.10
2018-03-30T11:40:34.111Z,55.70
2018-03-30T11:43:02.216Z,56.60
2018-03-30T11:45:30.353Z,56.20
2018-03-30T11:47:59.239Z,54.70
2018-03-30T11:50:28.153Z,54.90
2018-03-30T11:52:57.026Z,53.90
2018-03-30T11:55:26.048Z,54.40
2018-03-30T11:57:54.179Z,54.50
2018-03-30T12:00:23.062Z,56.70
2018-03-30T12:02:51.261Z,56.70
2018-03-30T12:05:20.257Z,53.30
2018-03-30T12:07:48.432Z,53.20
2018-03-30T12:10:16.561Z,53.10
2018-03-30T12:12:46.173Z,50.90
2018-03-30T12:15:14.371Z,51.50
2018-03-30T12:17:43.308Z,54.10
2018-03-30T12:20:11.411Z,54.10
2018-03-30T12:22:39.614Z,52.80
2018-03-30T12:25:07.799Z,52.80
2018-03-30T12:27:35.955Z,54.80
2018-03-30T12:30:04.850Z,51.10
2018-03-30T12:32:33.714Z,52.20
2018-03-30T12:35:01.881Z,52.30
2018-03-30T12:37:29.986Z,52.50
2018-03-30T12:39:58.881Z,48.90
2018-03-30T12:42:27.050Z,48.90
2018-03-30T12:44:56.045Z,50.30
2018-03-30T12:47:24.938Z,50.20
2018-03-30T12:49:53.107Z,50.20
2018-03-30T12:52:22.106Z,49.70
2018-03-30T12:54:50.297Z,49.80
2018-03-30T12:57:18.550Z,49.00
2018-03-30T12:59:46.670Z,49.10
2018-03-30T13:02:14.783Z,50.70
2018-03-30T13:04:43.664Z,50.90
2018-03-30T13:07:11.824Z,50.90
2018-03-30T13:09:40.029Z,52.50
2018-03-30T13:12:08.922Z,49.80
2018-03-30T13:14:37.826Z,50.40
2018-03-30T13:17:06.002Z,50.40
2018-03-30T13:19:34.114Z,50.90
2018-03-30T13:22:02.240Z,51.40
2018-03-30T13:24:30.406Z,50.90
2018-03-30T13:26:59.318Z,50.70
2018-03-30T13:29:27.430Z,50.80
2018-03-30T13:31:55.546Z,51.40
2018-03-30T13:34:23.693Z,49.80
2018-03-30T13:36:51.819Z,50.90
2018-03-30T13:39:19.944Z,49.80
2018-03-30T13:41:48.168Z,47.40
2018-03-30T13:44:16.265Z,48.60
2018-03-30T13:46:44.384Z,50.10
2018-03-30T13:49:13.275Z,48.00
2018-03-30T13:51:52.098Z,48.60
2018-03-30T13:54:23.852Z,48.00
2018-03-30T13:56:52.739Z,48.10
2018-03-30T13:59:25.008Z,45.60
2018-03-30T14:02:11.559Z,47.10
2018-03-30T14:07:51.204Z,44.70
2018-03-30T14:10:23.751Z,46.50
2018-03-30T14:12:52.628Z,45.90
2018-03-30T14:15:23.987Z,46.90
2018-03-30T14:18:07.431Z,47.20
2018-03-30T14:20:37.145Z,47.20
2018-03-30T14:23:09.916Z,46.70
2018-03-30T14:25:39.828Z,47.30
2018-03-30T14:28:13.433Z,48.80
2018-03-30T14:30:42.255Z,48.80
2018-03-30T14:33:25.257Z,47.30
2018-03-30T14:36:13.743Z,47.70
2018-03-30T14:38:45.652Z,47.50
2018-03-30T14:41:14.535Z,46.80
2018-03-30T14:43:58.887Z,47.20
2018-03-30T14:46:32.279Z,48.10
2018-03-30T14:49:06.717Z,47.40
2018-03-30T14:51:36.383Z,47.00
2018-03-30T14:54:06.443Z,47.00
2018-03-30T14:56:42.147Z,46.80
2018-03-30T14:59:16.858Z,46.70
2018-03-30T15:01:49.391Z,47.50
2018-03-30T15:04:36.835Z,48.10
2018-03-30T15:07:09.491Z,46.60
2018-03-30T15:09:44.055Z,47.80
2018-03-30T15:12:22.076Z,47.80
2018-03-30T15:14:54.035Z,47.90
2018-03-30T15:17:22.979Z,47.70
2018-03-30T15:19:56.583Z,47.50
2018-03-30T15:22:46.477Z,47.50
2018-03-30T15:25:16.531Z,45.30
2018-03-30T15:27:55.213Z,47.60
2018-03-30T15:30:24.172Z,48.20
2018-03-30T15:36:05.185Z,45.00
2018-03-30T15:38:34.070Z,46.90
2018-03-30T15:41:02.951Z,48.50
2018-03-30T15:43:31.074Z,48.50
2018-03-30T15:48:52.579Z,46.20
2018-03-30T15:52:57.300Z,46.30
2018-03-30T15:55:26.240Z,47.90
2018-03-30T15:57:54.327Z,47.10
2018-03-30T16:00:22.454Z,47.20
2018-03-30T16:02:51.331Z,48.60
2018-03-30T16:05:20.235Z,49.30
2018-03-30T16:07:49.149Z,49.00
2018-03-30T16:10:17.298Z,49.00
2018-03-30T16:12:46.173Z,49.20
2018-03-30T16:15:14.293Z,49.10
2018-03-30T16:17:42.439Z,49.40
2018-03-30T16:20:10.102Z,49.70
2018-03-30T16:22:38.541Z,50.60
2018-03-30T16:25:06.231Z,50.60
2018-03-30T16:27:34.618Z,51.10
2018-03-30T16:30:03.023Z,50.90
2018-03-30T16:32:30.662Z,50.90
2018-03-30T16:34:58.338Z,51.10
2018-03-30T16:37:25.971Z,51.20
2018-03-30T16:39:54.386Z,52.20
2018-03-30T16:42:22.054Z,52.20
2018-03-30T16:44:49.648Z,52.50
2018-03-30T16:47:17.298Z,52.90
2018-03-30T16:49:45.041Z,53.10
2018-03-30T16:52:12.651Z,53.70
2018-03-30T16:54:41.862Z,54.70
2018-03-30T16:57:10.258Z,55.00
2018-03-30T16:59:37.879Z,55.00
2018-03-30T17:02:05.496Z,55.20
2018-03-30T17:04:33.126Z,55.50
2018-03-30T17:07:00.901Z,55.50
2018-03-30T17:09:28.552Z,55.50
2018-03-30T17:11:57.035Z,55.40
2018-03-30T17:14:25.525Z,55.60
2018-03-30T17:16:54.103Z,56.20
2018-03-30T17:19:21.732Z,56.10
2018-03-30T17:21:49.382Z,56.20
2018-03-30T17:24:17.102Z,56.00
2018-03-30T17:26:44.722Z,56.70
2018-03-30T17:29:13.120Z,57.10
2018-03-30T17:31:40.788Z,56.80
2018-03-30T17:34:08.416Z,57.90
2018-03-30T17:36:36.824Z,58.90
2018-03-30T17:39:05.260Z,59.00
2018-03-30T17:41:32.901Z,59.00
2018-03-30T17:44:00.522Z,58.00
2018-03-30T17:46:29.042Z,57.90
2018-03-30T17:48:56.656Z,57.90
2018-03-30T17:51:25.076Z,59.10
2018-03-30T17:53:52.703Z,59.10
2018-03-30T17:56:21.088Z,59.90
2018-03-30T17:58:49.572Z,59.50
2018-03-30T18:01:17.207Z,59.30
2018-03-30T18:03:45.621Z,58.90
2018-03-30T18:06:13.312Z,58.90
2018-03-30T18:08:41.694Z,58.90
2018-03-30T18:11:09.317Z,58.80
2018-03-30T18:13:36.941Z,58.90
2018-03-30T18:16:04.572Z,58.70
2018-03-30T18:18:32.296Z,59.10
2018-03-30T18:21:00.720Z,59.00
2018-03-30T18:23:28.345Z,59.10
2018-03-30T18:25:55.963Z,59.30
2018-03-30T18:28:23.624Z,59.40
2018-03-30T18:30:51.289Z,59.60
2018-03-30T18:33:18.907Z,59.50
2018-03-30T18:35:46.528Z,59.50
2018-03-30T18:38:15.061Z,59.50
2018-03-30T18:40:42.692Z,59.50
2018-03-30T18:43:10.308Z,60.00
2018-03-30T18:45:37.938Z,59.80
2018-03-30T18:48:05.583Z,60.10
2018-03-30T18:50:33.220Z,60.50
2018-03-30T18:53:01.615Z,60.90
2018-03-30T18:55:29.244Z,60.90
2018-03-30T18:57:56.868Z,61.00
2018-03-30T19:00:24.489Z,61.60
2018-03-30T19:02:52.972Z,62.10
2018-03-30T19:05:21.356Z,61.00
2018-03-30T19:07:48.979Z,61.00
2018-03-30T19:10:16.625Z,61.60
2018-03-30T19:12:44.236Z,61.70
2018-03-30T19:15:11.891Z,61.80
2018-03-30T19:17:40.300Z,61.70
2018-03-30T19:20:07.924Z,61.60
2018-03-30T19:22:36.424Z,61.80
2018-03-30T19:25:04.043Z,61.80
2018-03-30T19:27:31.667Z,61.70
2018-03-30T19:29:59.299Z,61.40
2018-03-30T19:32:27.770Z,61.50
2018-03-30T19:34:56.255Z,61.70
2018-03-30T19:37:24.647Z,61.60
2018-03-30T19:39:52.267Z,61.70
2018-03-30T19:42:21.495Z,62.10
2018-03-30T19:44:49.981Z,62.90
2018-03-30T19:47:17.607Z,62.90
2018-03-30T19:49:45.279Z,61.80
2018-03-30T19:52:14.427Z,62.50
2018-03-30T19:54:42.077Z,62.40
2018-03-30T19:57:09.687Z,62.00
2018-03-30T19:59:37.314Z,61.80
2018-03-30T20:02:04.939Z,61.50
2018-03-30T20:04:33.323Z,61.50
2018-03-30T20:07:00.983Z,61.50
2018-03-30T20:09:28.601Z,61.60
2018-03-30T20:11:56.231Z,61.50
2018-03-30T20:14:23.847Z,61.80
2018-03-30T20:16:52.226Z,61.40
2018-03-30T20:19:20.723Z,61.40
2018-03-30T20:21:48.349Z,61.40
2018-03-30T20:24:15.980Z,61.40
2018-03-30T20:26:43.594Z,61.10
2018-03-30T20:29:11.975Z,61.70
2018-03-30T20:31:40.388Z,61.20
2018-03-30T20:34:07.998Z,61.20
2018-03-30T20:36:36.390Z,61.60
2018-03-30T20:39:04.792Z,62.30
2018-03-30T20:41:32.402Z,62.30
2018-03-30T20:44:00.019Z,62.20
2018-03-30T20:46:27.671Z,62.00
2018-03-30T20:48:55.282Z,62.20
2018-03-30T20:51:22.914Z,62.00
2018-03-30T20:53:50.524Z,62.10
2018-03-30T20:56:18.913Z,62.50
2018-03-30T20:58:47.292Z,62.00
2018-03-30T21:01:15.674Z,62.20
2018-03-30T21:03:44.056Z,62.00
2018-03-30T21:06:12.532Z,62.20
2018-03-30T21:08:40.927Z,62.30
2018-03-30T21:11:08.544Z,62.20
2018-03-30T21:13:36.188Z,62.60
2018-03-30T21:16:03.794Z,62.20
2018-03-30T21:18:32.165Z,63.50
2018-03-30T21:21:00.656Z,62.60
2018-03-30T21:23:29.170Z,62.50
2018-03-30T21:25:56.800Z,62.40
2018-03-30T21:28:25.176Z,62.50
2018-03-30T21:30:53.568Z,62.80
2018-03-30T21:33:21.212Z,62.70
2018-03-30T21:35:49.587Z,62.40
2018-03-30T21:38:17.968Z,61.90
2018-03-30T21:40:46.363Z,61.90
2018-03-30T21:43:14.028Z,61.80
2018-03-30T21:45:41.631Z,62.20
2018-03-30T21:48:09.763Z,61.90
2018-03-30T21:50:37.407Z,62.30
2018-03-30T21:53:05.836Z,62.60
2018-03-30T21:55:33.455Z,62.70
2018-03-30T21:58:01.063Z,62.40
2018-03-30T22:00:28.697Z,62.50
2018-03-30T22:02:56.315Z,62.10
2018-03-30T22:05:24.705Z,62.20
2018-03-30T22:07:53.095Z,62.00
2018-03-30T22:10:20.747Z,62.00
2018-03-30T22:12:49.159Z,62.30
2018-03-30T22:15:16.747Z,62.20
2018-03-30T22:17:44.446Z,62.10
2018-03-30T22:20:12.871Z,62.50
2018-03-30T22:22:40.493Z,62.40
2018-03-30T22:25:08.147Z,62.20
2018-03-30T22:27:36.523Z,62.50
2018-03-30T22:30:04.907Z,62.10
2018-03-30T22:32:33.287Z,62.50
2018-03-30T22:35:01.671Z,62.20
2018-03-30T22:37:29.284Z,62.10
2018-03-30T22:39:56.902Z,63.10
2018-03-30T22:42:24.547Z,62.50
2018-03-30T22:44:52.934Z,62.30
2018-03-30T22:47:20.551Z,62.20
2018-03-30T22:49:48.164Z,62.70
2018-03-30T22:52:15.822Z,62.60
2018-03-30T22:54:44.188Z,63.00
2018-03-30T22:57:12.569Z,62.10
2018-03-30T22:59:40.197Z,62.10
2018-03-30T23:02:07.806Z,62.50
2018-03-30T23:04:35.447Z,63.00
2018-03-30T23:07:03.065Z,62.50
2018-03-30T23:09:30.760Z,62.40
2018-03-30T23:11:59.148Z,62.60
2018-03-30T23:14:27.550Z,62.20
2018-03-30T23:16:55.157Z,62.10
2018-03-30T23:19:22.762Z,62.00
2018-03-30T23:21:50.386Z,62.00
2018-03-30T23:24:18.062Z,62.30
2018-03-30T23:26:46.438Z,62.60
2018-03-30T23:29:14.927Z,62.40
2018-03-30T23:31:43.312Z,62.10
2018-03-30T23:34:10.954Z,62.10
2018-03-30T23:36:39.325Z,62.20
2018-03-30T23:39:07.702Z,62.10
2018-03-30T23:41:36.086Z,62.10
2018-03-30T23:44:04.470Z,62.50
2018-03-30T23:46:32.966Z,62.30
2018-03-30T23:49:00.580Z,62.30
2018-03-30T23:51:28.196Z,62.20
2018-03-30T23:53:55.835Z,62.00
2018-03-30T23:56:24.203Z,62.00
2018-03-30T23:58:52.584Z,62.20
